createdAt,value
2018-12-21T00:03:35.161Z,100056.57
2018-12-21T00:08:37.627Z,100051.77
2018-12-21T00:13:40.120Z,100043.59
2018-12-21T00:18:42.580Z,100038.73
2018-12-21T00:23:45.088Z,100032.69
2018-12-21T00:28:47.556Z,100040.59
2018-12-21T00:33:56.049Z,100040.41
2018-12-21T00:39:04.149Z,100036.61
2018-12-21T00:44:08.661Z,100039.34
2018-12-21T00:49:11.122Z,100042.20
2018-12-21T00:54:13.953Z,100044.19
2018-12-21T00:59:16.540Z,100043.50
2018-12-21T01:04:19.936Z,100036.70
2018-12-21T01:09:22.558Z,100045.58
2018-12-21T01:14:25.030Z,100048.69
2018-12-21T01:19:28.069Z,100052.38
2018-12-21T01:24:30.535Z,100055.41
2018-12-21T01:29:33.005Z,100058.37
2018-12-21T01:34:35.472Z,100052.64
2018-12-21T01:39:37.944Z,100049.31
2018-12-21T01:44:40.413Z,100046.73
2018-12-21T01:49:42.885Z,100040.30
2018-12-21T01:54:45.487Z,100029.41
2018-12-21T01:59:47.964Z,100036.53
2018-12-21T02:04:50.428Z,100032.16
2018-12-21T02:09:53.136Z,100024.28
2018-12-21T02:14:55.662Z,100015.63
2018-12-21T02:19:58.159Z,100020.86
2018-12-21T02:25:00.624Z,100014.30
2018-12-21T02:30:03.608Z,100015.31
2018-12-21T02:35:06.793Z,100015.73
2018-12-21T02:40:09.294Z,100011.11
2018-12-21T02:45:11.810Z,100006.66
2018-12-21T02:50:14.343Z,100002.00
2018-12-21T02:55:16.821Z,99998.03
2018-12-21T03:00:19.283Z,100000.75
2018-12-21T03:05:21.818Z,99995.73
2018-12-21T03:10:24.276Z,99989.35
2018-12-21T03:15:26.803Z,99977.56
2018-12-21T03:20:29.301Z,99974.74
2018-12-21T03:25:32.497Z,99973.95
2018-12-21T03:30:34.997Z,99961.91
2018-12-21T03:35:37.462Z,99955.86
2018-12-21T03:40:39.981Z,99949.62
2018-12-21T03:45:42.641Z,99933.35
2018-12-21T03:50:45.116Z,99932.06
2018-12-21T03:55:47.576Z,99919.64
2018-12-21T04:00:50.079Z,99923.89
2018-12-21T04:05:52.553Z,99920.94
2018-12-21T04:10:55.044Z,99920.44
2018-12-21T04:15:58.104Z,99919.91
2018-12-21T04:21:00.569Z,99908.47
2018-12-21T04:26:03.047Z,99912.80
2018-12-21T04:31:05.532Z,99908.78
2018-12-21T04:36:08.016Z,99895.99
2018-12-21T04:41:10.480Z,99905.59
2018-12-21T04:46:13.079Z,99897.70
2018-12-21T04:51:15.604Z,99901.95
2018-12-21T04:56:18.081Z,99905.70
2018-12-21T05:01:20.568Z,99893.28
2018-12-21T05:06:23.034Z,99900.47
2018-12-21T05:11:25.496Z,99882.83
2018-12-21T05:16:27.965Z,99882.28
2018-12-21T05:21:30.426Z,99873.73
2018-12-21T05:26:32.883Z,99872.77
2018-12-21T05:31:35.353Z,99873.55
2018-12-21T05:36:37.829Z,99865.11
2018-12-21T05:41:40.464Z,99863.48
2018-12-21T05:46:42.945Z,99848.94
2018-12-21T05:51:45.483Z,99844.59
2018-12-21T05:56:47.948Z,99840.77
2018-12-21T06:01:50.717Z,99830.84
2018-12-21T06:06:53.365Z,99823.85
2018-12-21T06:11:55.832Z,99809.87
2018-12-21T06:16:58.320Z,99805.53
2018-12-21T06:22:00.878Z,99800.00
2018-12-21T06:27:04.049Z,99797.31
2018-12-21T06:32:06.717Z,99787.20
2018-12-21T06:37:09.318Z,99770.48
2018-12-21T06:42:11.905Z,99760.42
2018-12-21T06:47:14.389Z,99774.73
2018-12-21T06:52:16.994Z,99769.01
2018-12-21T06:57:19.476Z,99757.80
2018-12-21T07:02:22.186Z,99762.08
2018-12-21T07:07:24.645Z,99754.64
2018-12-21T07:12:27.133Z,99756.03
2018-12-21T07:17:29.597Z,99750.66
2018-12-21T07:22:32.094Z,99750.13
2018-12-21T07:27:34.703Z,99737.59
2018-12-21T07:32:37.170Z,99726.33
2018-12-21T07:37:39.712Z,99727.72
2018-12-21T07:42:42.195Z,99714.64
2018-12-21T07:47:44.815Z,99700.37
2018-12-21T07:52:47.285Z,99689.28
2018-12-21T07:57:49.752Z,99685.47
2018-12-21T08:02:52.212Z,99685.88
2018-12-21T08:07:54.800Z,99670.61
2018-12-21T08:12:57.256Z,99662.33
2018-12-21T08:17:59.716Z,99654.01
2018-12-21T08:23:02.356Z,99635.36
2018-12-21T08:28:04.888Z,99638.19
2018-12-21T08:33:07.423Z,99621.30
2018-12-21T08:38:10.700Z,99612.75
2018-12-21T08:43:13.170Z,99602.39
2018-12-21T08:48:15.632Z,99590.27
2018-12-21T08:53:18.412Z,99578.23
2018-12-21T08:58:20.903Z,99581.78
2018-12-21T09:03:23.416Z,99568.30
2018-12-21T09:08:25.941Z,99575.39
2018-12-21T09:13:28.603Z,99573.23
2018-12-21T09:18:31.082Z,99562.59
2018-12-21T09:23:33.961Z,99556.88
2018-12-21T09:28:36.591Z,99546.50
2018-12-21T09:33:39.120Z,99551.77
2018-12-21T09:38:41.584Z,99540.27
2018-12-21T09:43:44.052Z,99525.56
2018-12-21T09:48:46.631Z,99515.59
2018-12-21T09:53:49.109Z,99501.31
2018-12-21T09:58:51.585Z,99487.64
2018-12-21T10:03:54.239Z,99479.25
2018-12-21T10:08:56.747Z,99464.16
2018-12-21T10:14:00.001Z,99445.41
2018-12-21T10:19:02.483Z,99431.81
2018-12-21T10:24:04.984Z,99411.29
2018-12-21T10:29:07.464Z,99398.22
2018-12-21T10:34:10.016Z,99389.05
2018-12-21T10:39:12.485Z,99372.00
2018-12-21T10:44:14.953Z,99348.16
2018-12-21T10:49:17.488Z,99327.22
2018-12-21T10:54:26.842Z,99299.26
2018-12-21T10:59:24.621Z,99291.90
2018-12-21T11:04:27.152Z,99275.89
2018-12-21T11:09:29.620Z,99256.98
2018-12-21T11:14:32.613Z,99247.28
2018-12-21T11:19:35.996Z,99230.23
2018-12-21T11:24:38.545Z,99206.41
2018-12-21T11:29:41.084Z,99194.13
2018-12-21T11:34:43.548Z,99176.11
2018-12-21T11:39:46.019Z,99166.64
2018-12-21T11:44:48.488Z,99150.67
2018-12-21T11:49:51.116Z,99139.81
2018-12-21T11:54:53.732Z,99118.33
2018-12-21T11:59:56.326Z,99104.35
2018-12-21T12:04:58.797Z,99102.53
2018-12-21T12:10:01.267Z,99082.19
2018-12-21T12:15:05.365Z,99065.91
2018-12-21T12:20:07.996Z,99055.60
2018-12-21T12:25:10.460Z,99048.51
2018-12-21T12:30:12.924Z,99032.97
2018-12-21T12:35:15.420Z,99004.52
2018-12-21T12:40:17.940Z,98992.19
2018-12-21T12:45:20.415Z,98978.20
2018-12-21T12:50:22.947Z,98957.42
2018-12-21T12:55:25.621Z,98939.55
2018-12-21T13:00:28.120Z,98926.95
2018-12-21T13:05:30.589Z,98926.53
2018-12-21T13:10:33.067Z,98911.74
2018-12-21T13:15:36.285Z,98899.88
2018-12-21T13:20:38.781Z,98886.47
2018-12-21T13:25:41.263Z,98879.99
2018-12-21T13:30:43.760Z,98854.45
2018-12-21T13:35:46.764Z,98845.23
2018-12-21T13:40:49.236Z,98838.30
2018-12-21T13:45:51.708Z,98823.81
2018-12-21T13:50:54.252Z,98809.68
2018-12-21T13:55:56.747Z,98807.56
2018-12-21T14:00:59.300Z,98795.91
2018-12-21T14:06:01.835Z,98790.81
2018-12-21T14:11:04.349Z,98779.89
2018-12-21T14:16:06.867Z,98781.28
2018-12-21T14:21:09.333Z,98762.05
2018-12-21T14:26:11.819Z,98763.27
2018-12-21T14:31:14.535Z,98749.30
2018-12-21T14:36:16.998Z,98741.91
2018-12-21T14:41:19.579Z,98741.14
2018-12-21T14:46:22.205Z,98734.50
2018-12-21T14:51:24.715Z,98724.88
2018-12-21T14:56:27.352Z,98725.66
2018-12-21T15:01:29.948Z,98729.98
2018-12-21T15:06:32.445Z,98716.89
2018-12-21T15:11:34.977Z,98712.09
2018-12-21T15:16:37.485Z,98718.41
2018-12-21T15:21:39.980Z,98707.32
2018-12-21T15:26:42.457Z,98705.29
2018-12-21T15:31:45.484Z,98698.55
2018-12-21T15:36:48.399Z,98702.70
2018-12-21T15:41:50.994Z,98693.17
2018-12-21T15:46:53.564Z,98691.18
2018-12-21T15:51:56.064Z,98687.47
2018-12-21T15:56:58.557Z,98682.09
2018-12-21T16:02:01.089Z,98682.09
2018-12-21T16:07:03.609Z,98669.94
2018-12-21T16:12:06.157Z,98668.39
2018-12-21T16:17:08.893Z,98670.69
2018-12-21T16:22:11.399Z,98673.16
2018-12-21T16:27:14.517Z,98675.78
2018-12-21T16:32:16.989Z,98680.70
2018-12-21T16:37:19.486Z,98681.96
2018-12-21T16:42:21.971Z,98685.34
2018-12-21T16:47:24.845Z,98696.73
2018-12-21T16:52:27.363Z,98692.77
2018-12-21T16:57:29.824Z,98696.44
2018-12-21T17:02:33.259Z,98692.15
2018-12-21T17:07:35.755Z,98701.98
2018-12-21T17:12:38.243Z,98693.99
2018-12-21T17:17:40.733Z,98685.22
2018-12-21T17:22:43.196Z,98678.13
2018-12-21T17:27:46.141Z,98671.20
2018-12-21T17:32:48.609Z,98680.74
2018-12-21T17:37:51.082Z,98686.90
2018-12-21T17:42:53.579Z,98683.67
2018-12-21T17:47:56.064Z,98689.22
2018-12-21T17:52:58.527Z,98679.81
2018-12-21T17:58:01.011Z,98693.34
2018-12-21T18:03:03.527Z,98698.59
2018-12-21T18:08:06.676Z,98716.91
2018-12-21T18:13:09.306Z,98716.33
2018-12-21T18:18:12.036Z,98724.16
2018-12-21T18:23:15.243Z,98718.94
2018-12-21T18:28:22.289Z,98724.48
2018-12-21T18:33:24.933Z,98724.31
2018-12-21T18:38:27.448Z,98721.70
2018-12-21T18:43:29.919Z,98716.45
2018-12-21T18:48:32.540Z,98733.25
2018-12-21T18:53:35.017Z,98735.25
2018-12-21T18:58:37.480Z,98745.60
2018-12-21T19:03:39.978Z,98744.05
2018-12-21T19:08:42.441Z,98736.97
2018-12-21T19:13:44.946Z,98735.45
2018-12-21T19:18:47.412Z,98743.77
2018-12-21T19:23:49.871Z,98749.60
2018-12-21T19:28:52.363Z,98735.58
2018-12-21T19:33:54.836Z,98745.89
2018-12-21T19:38:57.301Z,98732.47
2018-12-21T19:43:59.763Z,98732.59
2018-12-21T19:49:02.256Z,98738.30
2018-12-21T19:54:04.744Z,98736.13
2018-12-21T19:59:07.216Z,98733.36
2018-12-21T20:04:09.693Z,98737.97
2018-12-21T20:09:12.211Z,98738.13
2018-12-21T20:14:14.772Z,98745.66
2018-12-21T20:19:17.293Z,98766.00
2018-12-21T20:24:19.814Z,98776.73
2018-12-21T20:29:22.293Z,98774.24
2018-12-21T20:34:24.887Z,98786.11
2018-12-21T20:39:27.729Z,98788.10
2018-12-21T20:44:30.241Z,98803.79
2018-12-21T20:49:32.708Z,98820.89
2018-12-21T20:54:36.565Z,98818.13
2018-12-21T20:59:39.479Z,98832.89
2018-12-21T21:04:42.076Z,98835.80
2018-12-21T21:09:44.652Z,98841.34
2018-12-21T21:14:47.362Z,98845.50
2018-12-21T21:19:50.218Z,98849.94
2018-12-21T21:24:52.697Z,98857.31
2018-12-21T21:29:55.340Z,98860.25
2018-12-21T21:34:58.396Z,98858.86
2018-12-21T21:40:02.382Z,98858.86
2018-12-21T21:45:08.164Z,98851.94
2018-12-21T21:50:10.652Z,98845.77
2018-12-21T21:55:13.172Z,98866.37
2018-12-21T22:00:15.732Z,98870.70
2018-12-21T22:05:18.353Z,98876.25
2018-12-21T22:10:20.848Z,98888.43
2018-12-21T22:15:23.985Z,98905.95
2018-12-21T22:20:26.484Z,98900.08
2018-12-21T22:25:29.053Z,98896.36
2018-12-21T22:30:31.701Z,98908.11
2018-12-21T22:35:34.193Z,98916.42
2018-12-21T22:40:36.689Z,98916.75
2018-12-21T22:45:39.264Z,98908.38
2018-12-21T22:50:41.959Z,98912.38
2018-12-21T22:55:44.429Z,98920.69
2018-12-21T23:00:47.221Z,98938.14
2018-12-21T23:05:49.747Z,98938.75
2018-12-21T23:10:52.837Z,98935.98
2018-12-21T23:15:55.313Z,98930.11
2018-12-21T23:20:57.892Z,98930.88
2018-12-21T23:26:00.359Z,98934.87
2018-12-21T23:31:02.820Z,98940.25
2018-12-21T23:36:05.705Z,98950.55
2018-12-21T23:41:08.176Z,98948.28
2018-12-21T23:46:10.731Z,98951.16
2018-12-21T23:51:13.309Z,98951.16
2018-12-21T23:56:15.776Z,98943.77
